Current Weather

Lansing Muni

Chicago, Illinois (KIGQ)

Report from: Friday, August 19, 2022 12:15 AM CDT
Current time: Friday, August 19, 2022 1:01 AM CDT

Nearby weather
Weather history
Weather forecast

Temperature18.2°C (64.8°F)
Dew point15.7°C (60.3°F)
Winds Calm
Visibility10 mi. (16.1 km)
Clouds Sky clear
Altimeter29.97 in.Hg (1015 mB)
Relative humidity85 %
Density altitude566 ft. (172 m)
Remarks Fully automated report
Automated weather observing station with precipitation discriminator
Lightning observed
Distant southwest
Flight conditions Visual Meteorological Conditions
Raw dataKIGQ 190515Z AUTO 00000KT 10SM CLR 18/16 A2997 RMK AO2 LTG DSNT SW T01820157
An unhandled exception has occurred. See browser dev tools for details. Reload 🗙